Time;durP1;ratioP1;P1;durP2;ratioP2;P2;SDS_P1;SDS_P2;PMS_P1;PMS_P2;Temp;Humidity;BMP_temperature;BMP_pressure;BME280_temperature;BME280_humidity;BME280_pressure;Samples;Min_cycle;Max_cycle;Signal;HPM_P1;HPM_P2
2022/08/11 00:00:12;;;;;;;;;;;;;;;15.29;nan;101983.63;2023190;29;19919;-69
2022/08/11 00:01:24;;;;;;;;;;;;;;;15.28;nan;101984.69;2023783;29;19970;-69
2022/08/11 00:02:34;;;;;;;;;;;;;;;15.27;nan;101981.16;2014344;29;19931;-72
2022/08/11 00:03:43;;;;;;;;;;;;;;;15.26;nan;101978.75;2010278;29;19964;-71
2022/08/11 00:04:45;;;;;;;;;;;;;;;15.26;nan;101973.34;2038408;29;19924;-71
2022/08/11 00:05:49;;;;;;;;;;;;;;;15.23;nan;101980.09;2038541;29;20378;-71
2022/08/11 00:06:54;;;;;;;;;;;;;;;15.22;nan;101977.66;2038472;29;19918;-71
2022/08/11 00:08:01;;;;;;;;;;;;;;;15.20;nan;101971.72;2037887;29;19918;-71
2022/08/11 00:09:25;;;;;;;;;;;;;;;15.19;nan;101973.59;2023472;29;20271;-71
2022/08/11 00:10:30;;;;;;;;;;;;;;;15.19;nan;101972.78;2023593;29;19915;-71
2022/08/11 00:11:44;;;;;;;;;;;;;;;15.19;nan;101975.50;2015933;29;20953;-71
2022/08/11 00:12:52;;;;;;;;;;;;;;;15.19;nan;101975.50;2023060;29;19919;-71
2022/08/11 00:14:02;;;;;;;;;;;;;;;15.19;nan;101972.78;2022581;29;19915;-71
2022/08/11 00:15:05;;;;;;;;;;;;;;;15.18;nan;101971.97;2031748;29;19919;-70
2022/08/11 00:16:14;;;;;;;;;;;;;;;15.20;nan;101974.44;2037027;29;19922;-71
2022/08/11 00:17:16;;;;;;;;;;;;;;;15.22;nan;101972.22;2030922;29;19923;-71
2022/08/11 00:18:26;;;;;;;;;;;;;;;15.20;nan;101969.00;2015090;29;19920;-71
2022/08/11 00:19:30;;;;;;;;;;;;;;;15.22;nan;101969.53;2016066;29;19927;-72
2022/08/11 00:20:33;;;;;;;;;;;;;;;15.23;nan;101973.88;2023523;29;19930;-72
2022/08/11 00:21:40;;;;;;;;;;;;;;;15.20;nan;101963.59;2030640;29;20368;-72
2022/08/11 00:22:46;;;;;;;;;;;;;;;15.19;nan;101968.16;2022652;29;19919;-71
2022/08/11 00:23:53;;;;;;;;;;;;;;;15.18;nan;101961.13;2015447;29;20043;-72
2022/08/11 00:25:01;;;;;;;;;;;;;;;15.18;nan;101966.56;2016403;29;20515;-71
2022/08/11 00:26:06;;;;;;;;;;;;;;;15.17;nan;101961.44;2030684;29;19922;-71
2022/08/11 00:27:08;;;;;;;;;;;;;;;15.16;nan;101962.50;2022499;29;19916;-71
2022/08/11 00:28:32;;;;;;;;;;;;;;;15.17;nan;101959.53;2006904;29;19923;-73
2022/08/11 00:29:34;;;;;;;;;;;;;;;15.19;nan;101956.53;2010690;29;20448;-72
2022/08/11 00:30:39;;;;;;;;;;;;;;;15.18;nan;101960.34;2014741;29;19920;-71
2022/08/11 00:31:45;;;;;;;;;;;;;;;15.18;nan;101955.72;2015521;29;19923;-71
2022/08/11 00:32:55;;;;;;;;;;;;;;;15.19;nan;101961.94;2031523;29;20272;-71
2022/08/11 00:33:59;;;;;;;;;;;;;;;15.18;nan;101965.75;2029151;29;19926;-72
2022/08/11 00:35:06;;;;;;;;;;;;;;;15.18;nan;101968.47;2016055;29;20285;-72
2022/08/11 00:36:08;;;;;;;;;;;;;;;15.16;nan;101968.72;2031379;29;19933;-70
2022/08/11 00:37:11;;;;;;;;;;;;;;;15.16;nan;101962.50;2030445;29;20624;-72
2022/08/11 00:38:17;;;;;;;;;;;;;;;15.15;nan;101969.00;2023391;29;19923;-72
2022/08/11 00:39:20;;;;;;;;;;;;;;;15.14;nan;101965.50;2014715;29;19923;-72
2022/08/11 00:40:33;;;;;;;;;;;;;;;15.13;nan;101965.75;2007841;29;19919;-71
2022/08/11 00:41:53;;;;;;;;;;;;;;;15.10;nan;101974.44;2004219;29;19927;-71
2022/08/11 00:43:02;;;;;;;;;;;;;;;15.07;nan;101973.09;2011951;29;20365;-69
2022/08/11 00:44:23;;;;;;;;;;;;;;;15.05;nan;101977.97;2015051;29;19923;-70
2022/08/11 00:45:41;;;;;;;;;;;;;;;15.03;nan;101975.53;2015444;29;19919;-69
2022/08/11 00:46:57;;;;;;;;;;;;;;;14.99;nan;101969.03;2015381;29;19927;-71
2022/08/11 00:48:04;;;;;;;;;;;;;;;15.00;nan;101965.22;2014576;29;20369;-71
2022/08/11 00:49:22;;;;;;;;;;;;;;;14.99;nan;101974.47;2023249;29;19919;-70
2022/08/11 00:50:28;;;;;;;;;;;;;;;14.98;nan;101972.84;2020499;29;19922;-70
2022/08/11 00:51:35;;;;;;;;;;;;;;;14.98;nan;101978.25;2015120;29;20266;-70
2022/08/11 00:52:56;;;;;;;;;;;;;;;14.98;nan;101978.25;2030354;29;19915;-70
2022/08/11 00:54:16;;;;;;;;;;;;;;;14.98;nan;101974.75;2020562;29;19915;-70
2022/08/11 00:55:32;;;;;;;;;;;;;;;14.96;nan;101977.72;2015843;29;19920;-70
2022/08/11 00:56:36;;;;;;;;;;;;;;;14.94;nan;101979.91;2015928;29;19919;-71
2022/08/11 00:57:37;;;;;;;;;;;;;;;14.93;nan;101975.53;2016137;29;19916;-70
2022/08/11 00:58:58;;;;;;;;;;;;;;;14.94;nan;101974.47;2023208;29;19915;-72
2022/08/11 01:00:16;;;;;;;;;;;;;;;14.93;nan;101980.97;2020864;29;19916;-71
2022/08/11 01:01:27;;;;;;;;;;;;;;;14.89;nan;101973.66;2016429;29;19920;-70
2022/08/11 01:02:32;;;;;;;;;;;;;;;14.86;nan;101974.22;2017199;29;19927;-71
2022/08/11 01:03:55;;;;;;;;;;;;;;;14.86;nan;101975.03;2021378;29;20129;-71
2022/08/11 01:05:01;;;;;;;;;;;;;;;14.90;nan;101980.69;2024119;29;19922;-71
2022/08/11 01:06:21;;;;;;;;;;;;;;;14.92;nan;101979.34;2024394;29;19919;-73
2022/08/11 01:07:22;;;;;;;;;;;;;;;14.94;nan;101988.03;2024511;29;19922;-71
2022/08/11 01:08:41;;;;;;;;;;;;;;;14.98;nan;101982.88;2024314;29;19915;-71
2022/08/11 01:09:51;;;;;;;;;;;;;;;15.00;nan;101981.47;2028093;29;19924;-72
2022/08/11 01:11:06;;;;;;;;;;;;;;;15.01;nan;101977.72;2039520;29;19915;-71
2022/08/11 01:12:22;;;;;;;;;;;;;;;15.03;nan;101977.44;2037856;29;19938;-71
2022/08/11 01:13:42;;;;;;;;;;;;;;;15.03;nan;101980.94;2023937;29;19927;-71
2022/08/11 01:14:48;;;;;;;;;;;;;;;15.04;nan;101984.50;2034384;29;19922;-71
2022/08/11 01:15:54;;;;;;;;;;;;;;;15.02;nan;101979.31;2023351;29;20431;-70
2022/08/11 01:17:10;;;;;;;;;;;;;;;15.02;nan;101979.31;2016304;29;20403;-71
2022/08/11 01:18:30;;;;;;;;;;;;;;;15.05;nan;101977.97;2034357;29;19914;-71
2022/08/11 01:19:33;;;;;;;;;;;;;;;15.05;nan;101977.97;2025552;29;19916;-72
2022/08/11 01:20:53;;;;;;;;;;;;;;;15.06;nan;101976.88;2025911;29;19915;-71
2022/08/11 01:22:10;;;;;;;;;;;;;;;15.04;nan;101982.59;2028363;29;20418;-70
2022/08/11 01:23:20;;;;;;;;;;;;;;;15.03;nan;101988.25;2018508;29;20376;-71
2022/08/11 01:24:42;;;;;;;;;;;;;;;15.01;nan;101976.91;2018258;29;19919;-71
2022/08/11 01:26:04;;;;;;;;;;;;;;;14.98;nan;101980.97;2025526;29;20263;-71
2022/08/11 01:27:12;;;;;;;;;;;;;;;14.94;nan;101974.47;2022995;29;20347;-71
2022/08/11 01:28:36;;;;;;;;;;;;;;;14.93;nan;101986.38;2033327;29;19915;-71
2022/08/11 01:30:08;;;;;;;;;;;;;;;14.93;nan;101980.97;2022930;29;19919;-71
2022/08/11 01:31:22;;;;;;;;;;;;;;;14.89;nan;101985.31;2025528;29;19919;-71
2022/08/11 01:32:41;;;;;;;;;;;;;;;14.87;nan;101987.47;2008719;29;19915;-72
2022/08/11 01:34:03;;;;;;;;;;;;;;;14.88;nan;101978.28;2020413;29;19922;-72
2022/08/11 01:35:04;;;;;;;;;;;;;;;14.88;nan;101989.13;2036772;29;19922;-72
2022/08/11 01:36:25;;;;;;;;;;;;;;;14.87;nan;101979.34;2026321;29;19915;-71
2022/08/11 01:37:29;;;;;;;;;;;;;;;14.87;nan;101976.63;2025642;29;19922;-72
2022/08/11 01:38:51;;;;;;;;;;;;;;;14.86;nan;101977.72;2033202;29;19915;-71
2022/08/11 01:40:00;;;;;;;;;;;;;;;14.86;nan;101982.34;2025036;29;19926;-71
2022/08/11 01:41:07;;;;;;;;;;;;;;;14.86;nan;101982.34;2034460;29;20322;-72
2022/08/11 01:45:16;;;;;;;;;;;;;;;14.87;nan;101987.47;2028902;29;19922;-71
2022/08/11 01:46:29;;;;;;;;;;;;;;;14.87;nan;101987.47;2025368;29;19919;-71
2022/08/11 01:47:51;;;;;;;;;;;;;;;14.88;nan;101983.69;2033060;29;20315;-71
2022/08/11 01:49:04;;;;;;;;;;;;;;;14.89;nan;101987.22;2029769;29;19919;-70
2022/08/11 01:50:15;;;;;;;;;;;;;;;14.90;nan;101986.13;2025808;29;19924;-71
2022/08/11 01:51:24;;;;;;;;;;;;;;;14.89;nan;101985.31;2025540;29;19921;-70
2022/08/11 01:52:29;;;;;;;;;;;;;;;14.89;nan;101985.31;2041077;29;19922;-71
2022/08/11 01:53:30;;;;;;;;;;;;;;;14.91;nan;101988.56;2032543;29;19919;-71
2022/08/11 01:54:40;;;;;;;;;;;;;;;14.91;nan;101990.44;2025492;29;20371;-71
2022/08/11 01:56:02;;;;;;;;;;;;;;;14.90;nan;101986.13;2040399;29;19918;-71
2022/08/11 01:57:09;;;;;;;;;;;;;;;14.90;nan;101978.00;2030001;29;20407;-71
2022/08/11 01:58:26;;;;;;;;;;;;;;;14.88;nan;101980.16;2025271;29;20347;-71
2022/08/11 01:59:28;;;;;;;;;;;;;;;14.86;nan;101982.34;2032974;29;19915;-70
2022/08/11 02:00:34;;;;;;;;;;;;;;;14.84;nan;101977.19;2025334;29;20311;-71
2022/08/11 02:01:44;;;;;;;;;;;;;;;14.83;nan;101975.56;2025966;29;19919;-71
2022/08/11 02:03:03;;;;;;;;;;;;;;;14.82;nan;101973.94;2020731;29;19915;-73
2022/08/11 02:04:16;;;;;;;;;;;;;;;14.79;nan;101975.31;2020050;29;19919;-72
2022/08/11 02:05:36;;;;;;;;;;;;;;;14.77;nan;101977.47;2025376;29;19919;-72
2022/08/11 02:06:55;;;;;;;;;;;;;;;14.77;nan;101971.22;2035566;29;19922;-71
2022/08/11 02:08:15;;;;;;;;;;;;;;;14.77;nan;101977.47;2036383;29;19921;-71
2022/08/11 02:09:27;;;;;;;;;;;;;;;14.74;nan;101985.31;2026850;29;20505;-71
2022/08/11 02:11:55;;;;;;;;;;;;;;;14.74;nan;101980.72;2030126;29;19915;-71
2022/08/11 02:13:23;;;;;;;;;;;;;;;14.77;nan;101988.28;2026333;29;20336;-70
2022/08/11 02:14:28;;;;;;;;;;;;;;;14.76;nan;101985.88;2032654;29;19954;-71
2022/08/11 02:15:35;;;;;;;;;;;;;;;14.73;nan;101976.38;2024252;29;20359;-71
2022/08/11 02:16:41;;;;;;;;;;;;;;;14.72;nan;101982.06;2025287;29;19927;-70
2022/08/11 02:17:57;;;;;;;;;;;;;;;14.70;nan;101976.13;2040757;29;19919;-71
2022/08/11 02:24:53;;;;;;;;;;;;;;;14.53;nan;101988.03;2033040;29;19915;-72
2022/08/11 02:26:18;;;;;;;;;;;;;;;14.53;nan;101981.78;2031032;29;19915;-70
2022/08/11 02:27:21;;;;;;;;;;;;;;;14.53;nan;101988.03;2039096;29;19914;-71
2022/08/11 02:28:30;;;;;;;;;;;;;;;14.51;nan;101984.78;2032626;29;19926;-71
2022/08/11 02:29:32;;;;;;;;;;;;;;;14.51;nan;101984.78;2018194;29;19926;-71
2022/08/11 02:30:41;;;;;;;;;;;;;;;14.52;nan;101991.00;2033119;29;19915;-71
2022/08/11 02:33:25;;;;;;;;;;;;;;;14.49;nan;101995.03;2032959;29;19922;-72
2022/08/11 02:34:26;;;;;;;;;;;;;;;14.49;nan;101989.59;2030005;29;20382;-72
2022/08/11 02:35:35;;;;;;;;;;;;;;;14.48;nan;101985.28;2017341;29;19915;-72
2022/08/11 02:37:00;;;;;;;;;;;;;;;14.48;nan;101988.00;2026785;29;19915;-72
2022/08/11 02:38:01;;;;;;;;;;;;;;;14.46;nan;101990.16;2021990;29;19926;-72
2022/08/11 02:39:10;;;;;;;;;;;;;;;14.47;nan;101991.78;2032977;29;19911;-72
2022/08/11 02:40:20;;;;;;;;;;;;;;;14.47;nan;101991.78;2030063;29;19926;-72
2022/08/11 02:43:09;;;;;;;;;;;;;;;14.51;nan;101990.19;2033120;29;19915;-71
2022/08/11 02:44:27;;;;;;;;;;;;;;;14.53;nan;101992.59;2035441;29;19919;-71
2022/08/11 02:45:31;;;;;;;;;;;;;;;14.54;nan;101991.56;2025506;29;20367;-71
2022/08/11 02:47:00;;;;;;;;;;;;;;;14.55;nan;101991.25;2017232;29;20435;-72
2022/08/11 02:49:54;;;;;;;;;;;;;;;14.56;nan;101998.31;2040475;29;20314;-71
2022/08/11 02:51:16;;;;;;;;;;;;;;;14.57;nan;101993.72;2029300;29;20469;-71
2022/08/11 02:52:38;;;;;;;;;;;;;;;14.59;nan;101992.34;2027927;29;20354;-72
2022/08/11 02:53:59;;;;;;;;;;;;;;;14.60;nan;101991.28;2029971;29;19915;-72
2022/08/11 02:55:22;;;;;;;;;;;;;;;14.61;nan;101989.38;2040600;29;19954;-73
2022/08/11 02:56:43;;;;;;;;;;;;;;;14.62;nan;101991.00;2029620;29;19915;-73
2022/08/11 02:57:54;;;;;;;;;;;;;;;14.62;nan;101996.41;2026839;29;19939;-72
2022/08/11 03:01:13;;;;;;;;;;;;;;;14.67;nan;101996.41;2024071;29;19915;-71
2022/08/11 03:02:31;;;;;;;;;;;;;;;14.69;nan;101993.44;2031161;29;20567;-72
2022/08/11 03:03:38;;;;;;;;;;;;;;;14.71;nan;101993.97;2024517;29;19926;-72
2022/08/11 03:04:48;;;;;;;;;;;;;;;14.73;nan;101992.63;2039352;29;20501;-72
2022/08/11 03:06:08;;;;;;;;;;;;;;;14.75;nan;101995.06;2030586;29;19919;-72
2022/08/11 03:07:22;;;;;;;;;;;;;;;14.78;nan;101995.31;2016424;29;19920;-72
2022/08/11 03:08:30;;;;;;;;;;;;;;;14.79;nan;101994.25;2012760;29;19916;-72
2022/08/11 03:09:37;;;;;;;;;;;;;;;14.81;nan;101999.38;2027704;29;19953;-73
2022/08/11 03:16:44;;;;;;;;;;;;;;;14.83;nan;101986.41;2020039;29;19970;-74
2022/08/11 03:17:13;;;;;;;;;;;;;;;14.84;nan;101990.72;2016934;29;20014;-73
2022/08/11 03:18:25;;;;;;;;;;;;;;;14.85;nan;101989.66;2012981;29;19927;-73
2022/08/11 03:19:29;;;;;;;;;;;;;;;14.89;nan;101993.44;2024918;29;19919;-73
2022/08/11 03:20:40;;;;;;;;;;;;;;;14.89;nan;101990.72;2024239;29;20620;-74
2022/08/11 03:21:47;;;;;;;;;;;;;;;14.86;nan;101995.88;2017891;29;19920;-73
2022/08/11 03:23:07;;;;;;;;;;;;;;;14.83;nan;101997.22;2017448;29;19919;-72
2022/08/11 03:24:26;;;;;;;;;;;;;;;14.82;nan;101998.31;2026833;29;19915;-72
2022/08/11 03:25:36;;;;;;;;;;;;;;;14.82;nan;101995.63;2006569;29;19920;-72
2022/08/11 03:26:46;;;;;;;;;;;;;;;14.82;nan;101991.00;2003601;29;19916;-72
2022/08/11 03:27:51;;;;;;;;;;;;;;;14.83;nan;101994.53;2016697;29;19915;-72
2022/08/11 03:29:00;;;;;;;;;;;;;;;14.86;nan;101996.69;2025228;29;19939;-70
2022/08/11 03:30:29;;;;;;;;;;;;;;;14.89;nan;101988.03;2033087;29;19922;-70
2022/08/11 03:31:50;;;;;;;;;;;;;;;14.93;nan;101989.09;2017124;29;19923;-70
2022/08/11 03:34:31;;;;;;;;;;;;;;;15.11;nan;101993.13;2030965;29;19931;-71
2022/08/11 03:35:38;;;;;;;;;;;;;;;15.23;nan;101984.72;2016901;29;20296;-70
2022/08/11 03:36:55;;;;;;;;;;;;;;;15.35;nan;101987.09;2010799;29;19926;-71
2022/08/11 03:38:01;;;;;;;;;;;;;;;15.46;nan;101980.56;2018479;29;19916;-73
2022/08/11 03:39:02;;;;;;;;;;;;;;;15.54;nan;101979.97;2024786;29;19922;-72
2022/08/11 03:41:41;;;;;;;;;;;;;;;15.62;nan;101982.13;2017059;29;20396;-71
2022/08/11 03:41:43;;;;;;;;;;;;;;;15.74;nan;101990.78;2029026;29;19915;-72
2022/08/11 03:42:50;;;;;;;;;;;;;;;15.83;nan;101990.22;2031553;29;20375;-72
2022/08/11 03:44:03;;;;;;;;;;;;;;;15.89;nan;101983.66;2032622;29;19919;-70
2022/08/11 03:45:23;;;;;;;;;;;;;;;15.98;nan;101985.53;2019445;29;21038;-71
2022/08/11 03:46:44;;;;;;;;;;;;;;;16.08;nan;101989.25;2021368;29;21567;-72
2022/08/11 03:47:55;;;;;;;;;;;;;;;16.16;nan;101988.66;2019405;29;19920;-71
2022/08/11 03:49:21;;;;;;;;;;;;;;;16.22;nan;101990.25;2023004;29;19919;-71
2022/08/11 03:50:43;;;;;;;;;;;;;;;16.31;nan;101983.13;2016316;29;19922;-72
2022/08/11 03:51:57;;;;;;;;;;;;;;;16.44;nan;101987.13;2021578;29;20268;-71
2022/08/11 03:53:11;;;;;;;;;;;;;;;16.57;nan;101986.47;2022167;29;19922;-70
2022/08/11 03:54:27;;;;;;;;;;;;;;;16.69;nan;101986.09;2018212;29;19923;-72
2022/08/11 03:56:06;;;;;;;;;;;;;;;16.84;nan;101979.75;2024044;29;19919;-72
2022/08/11 03:57:26;;;;;;;;;;;;;;;17.01;nan;101984.75;2024023;29;19923;-72
2022/08/11 03:58:31;;;;;;;;;;;;;;;17.16;nan;101981.09;2019041;29;19979;-72
2022/08/11 04:00:00;;;;;;;;;;;;;;;17.26;nan;101980.97;2029207;29;19922;-72
2022/08/11 04:01:20;;;;;;;;;;;;;;;17.43;nan;101985.94;2024119;29;19922;-72
2022/08/11 04:02:31;;;;;;;;;;;;;;;17.56;nan;101985.25;2024296;29;19923;-71
2022/08/11 04:04:00;;;;;;;;;;;;;;;17.69;nan;101983.72;2018543;29;19923;-71
2022/08/11 04:05:19;;;;;;;;;;;;;;;17.85;nan;101989.81;2024281;29;19922;-71
2022/08/11 04:06:32;;;;;;;;;;;;;;;18.01;nan;101991.22;2024616;29;19916;-71
2022/08/11 04:07:37;;;;;;;;;;;;;;;18.13;nan;101994.31;2024120;29;20518;-72
2022/08/11 04:08:41;;;;;;;;;;;;;;;18.25;nan;101999.28;2032265;29;19922;-71
2022/08/11 04:10:00;;;;;;;;;;;;;;;18.38;nan;102000.47;2027929;29;19914;-71
2022/08/11 04:11:09;;;;;;;;;;;;;;;18.49;nan;102001.94;2024330;29;19923;-71
2022/08/11 04:12:33;;;;;;;;;;;;;;;18.58;nan;101999.34;2027792;29;20522;-71
2022/08/11 04:15:58;;;;;;;;;;;;;;;18.70;nan;101997.78;2034791;29;19919;-71
2022/08/11 04:15:59;;;;;;;;;;;;;;;18.87;nan;101999.16;2016543;29;19931;-71
2022/08/11 04:17:02;;;;;;;;;;;;;;;19.01;nan;102000.00;2020860;29;20440;-71
2022/08/11 04:18:19;;;;;;;;;;;;;;;19.12;nan;102006.06;2030452;29;19982;-71
2022/08/11 04:19:23;;;;;;;;;;;;;;;19.19;nan;102015.44;2018051;29;19927;-72
2022/08/11 04:20:38;;;;;;;;;;;;;;;19.36;nan;102003.16;2016473;29;20344;-72
2022/08/11 04:22:00;;;;;;;;;;;;;;;19.49;nan;102002.34;2025657;29;19915;-71
2022/08/11 04:23:29;;;;;;;;;;;;;;;19.65;nan;102011.06;2020510;29;19916;-72
2022/08/11 04:24:56;;;;;;;;;;;;;;;19.79;nan;101998.19;2016296;29;19915;-72
2022/08/11 04:26:18;;;;;;;;;;;;;;;19.95;nan;102003.31;2019564;29;20307;-71
2022/08/11 04:27:23;;;;;;;;;;;;;;;20.08;nan;101994.28;2016244;29;19915;-71
2022/08/11 04:28:26;;;;;;;;;;;;;;;20.22;nan;102002.44;2016464;29;19923;-71
2022/08/11 04:29:43;;;;;;;;;;;;;;;20.32;nan;101992.09;2023468;29;19919;-72
2022/08/11 04:30:57;;;;;;;;;;;;;;;20.46;nan;102000.25;2031882;29;19919;-71
2022/08/11 04:32:17;;;;;;;;;;;;;;;20.39;nan;102005.31;2014469;29;19920;-71
2022/08/11 04:33:36;;;;;;;;;;;;;;;20.50;nan;102003.97;2020708;29;19915;-71
2022/08/11 04:34:58;;;;;;;;;;;;;;;20.58;nan;102021.56;2020937;29;19923;-73
2022/08/11 04:37:30;;;;;;;;;;;;;;;20.70;nan;102018.25;2019577;29;19915;-73
2022/08/11 04:38:05;;;;;;;;;;;;;;;20.81;nan;102014.16;2022564;29;19915;-73
2022/08/11 04:39:06;;;;;;;;;;;;;;;20.81;nan;102014.97;2024803;29;19919;-72
2022/08/11 04:40:25;;;;;;;;;;;;;;;20.95;nan;102016.81;2031741;29;19919;-73
2022/08/11 04:41:31;;;;;;;;;;;;;;;21.10;nan;102016.41;2028789;29;19919;-74
2022/08/11 04:44:25;;;;;;;;;;;;;;;21.17;nan;102021.44;2024639;29;19930;-72
2022/08/11 04:45:51;;;;;;;;;;;;;;;21.26;nan;102022.28;2031682;29;19919;-72
2022/08/11 04:47:05;;;;;;;;;;;;;;;21.43;nan;102007.88;2017246;29;19950;-71
2022/08/11 05:02:23;;;;;;;;;;;;;;;22.41;nan;101976.44;2019258;29;19923;-73
2022/08/11 05:03:36;;;;;;;;;;;;;;;22.53;nan;101976.56;2018070;29;19927;-71
2022/08/11 05:06:27;;;;;;;;;;;;;;;22.81;nan;101971.50;2016117;29;19943;-72
2022/08/11 05:07:44;;;;;;;;;;;;;;;22.80;nan;101989.09;2023632;29;19915;-72
2022/08/11 05:09:02;;;;;;;;;;;;;;;22.92;nan;101985.69;2021698;29;19915;-72
2022/08/11 05:10:12;;;;;;;;;;;;;;;23.01;nan;101988.41;2029015;29;19915;-72
2022/08/11 05:11:31;;;;;;;;;;;;;;;23.10;nan;101992.72;2016142;29;19920;-72
2022/08/11 05:12:47;;;;;;;;;;;;;;;23.22;nan;101994.78;2007826;29;19916;-71
2022/08/11 05:35:33;;;;;;;;;;;;;;;25.26;nan;101996.03;2025959;29;19924;-71
2022/08/11 05:36:34;;;;;;;;;;;;;;;25.42;nan;101995.00;2022199;29;19927;-68
2022/08/11 05:37:35;;;;;;;;;;;;;;;25.54;nan;101985.94;2014106;29;19994;-71
2022/08/11 05:56:42;;;;;;;;;;;;;;;24.74;nan;101981.72;2024149;29;19922;-66
2022/08/11 05:57:44;;;;;;;;;;;;;;;24.43;nan;101992.38;2021669;29;19927;-65
2022/08/11 05:58:52;;;;;;;;;;;;;;;24.18;nan;101985.94;2021675;29;20442;-66
2022/08/11 05:59:58;;;;;;;;;;;;;;;24.49;nan;101985.53;2021887;29;19933;-66
2022/08/11 06:01:00;;;;;;;;;;;;;;;24.73;nan;101985.59;2021905;29;19919;-66
2022/08/11 06:02:08;;;;;;;;;;;;;;;24.43;nan;101986.88;2014688;29;19919;-66
2022/08/11 06:03:25;;;;;;;;;;;;;;;24.45;nan;101990.91;2014621;29;19927;-65
2022/08/11 06:04:32;;;;;;;;;;;;;;;24.25;nan;102003.53;2030845;29;20084;-66
2022/08/11 06:05:40;;;;;;;;;;;;;;;24.44;nan;102000.31;2022352;29;19938;-66
2022/08/11 06:06:50;;;;;;;;;;;;;;;24.51;nan;102010.75;2024368;29;20303;-66
2022/08/11 06:07:56;;;;;;;;;;;;;;;24.61;nan;102004.03;2023207;29;19930;-65
2022/08/11 06:09:00;;;;;;;;;;;;;;;25.10;nan;102004.13;2016770;29;19926;-63
2022/08/11 06:10:03;;;;;;;;;;;;;;;24.85;nan;102003.28;2022182;29;19919;-65
2022/08/11 06:11:07;;;;;;;;;;;;;;;24.75;nan;102004.53;2023096;29;19923;-64
2022/08/11 06:12:22;;;;;;;;;;;;;;;25.06;nan;102008.69;2015751;29;19935;-64
2022/08/11 06:13:25;;;;;;;;;;;;;;;25.30;nan;102008.75;2011849;29;19939;-64
2022/08/11 06:14:26;;;;;;;;;;;;;;;24.92;nan;102014.53;2023939;29;19942;-64
2022/08/11 06:15:29;;;;;;;;;;;;;;;24.72;nan;102005.22;2017378;29;19942;-64
2022/08/11 06:16:31;;;;;;;;;;;;;;;24.96;nan;101998.94;2015978;29;20296;-66
2022/08/11 06:17:44;;;;;;;;;;;;;;;25.10;nan;102004.94;2015316;29;19920;-64
2022/08/11 06:18:48;;;;;;;;;;;;;;;25.18;nan;102004.03;2022815;29;19926;-65
2022/08/11 06:19:52;;;;;;;;;;;;;;;24.97;nan;102011.56;2016048;29;19931;-63
2022/08/11 06:20:56;;;;;;;;;;;;;;;24.70;nan;102008.28;2016638;29;19919;-64
2022/08/11 06:22:00;;;;;;;;;;;;;;;25.30;nan;102011.50;2022984;29;19919;-63
2022/08/11 06:23:02;;;;;;;;;;;;;;;25.68;nan;102018.59;2023992;29;19975;-64
2022/08/11 06:24:10;;;;;;;;;;;;;;;25.64;nan;102015.75;2024564;29;19926;-64
2022/08/11 06:25:15;;;;;;;;;;;;;;;25.25;nan;102011.72;2023954;29;19923;-65
2022/08/11 06:26:24;;;;;;;;;;;;;;;24.97;nan;102012.38;2023010;29;19916;-65
2022/08/11 06:27:28;;;;;;;;;;;;;;;24.75;nan;102015.53;2023977;29;19926;-65
2022/08/11 06:28:33;;;;;;;;;;;;;;;24.89;nan;102016.03;2016075;29;20320;-65
2022/08/11 06:29:49;;;;;;;;;;;;;;;25.26;nan;102018.84;2024621;29;19922;-67
2022/08/11 06:30:53;;;;;;;;;;;;;;;24.85;nan;102019.81;2015858;29;20574;-63
2022/08/11 06:32:01;;;;;;;;;;;;;;;24.40;nan;102010.34;2016069;29;19920;-64
2022/08/11 06:33:06;;;;;;;;;;;;;;;24.24;nan;102015.66;2016157;29;19920;-64
2022/08/11 06:34:16;;;;;;;;;;;;;;;24.19;nan;102021.34;2021033;29;19919;-64
2022/08/11 06:35:34;;;;;;;;;;;;;;;24.27;nan;102017.75;2023921;29;19930;-63
2022/08/11 06:36:47;;;;;;;;;;;;;;;23.91;nan;102021.09;2039461;29;19918;-65
2022/08/11 06:37:48;;;;;;;;;;;;;;;24.08;nan;102025.63;2024514;29;19926;-63
2022/08/11 06:39:07;;;;;;;;;;;;;;;24.79;nan;102021.16;2015480;29;19956;-64
2022/08/11 06:40:19;;;;;;;;;;;;;;;25.55;nan;102020.56;2030706;29;19919;-64
2022/08/11 06:41:33;;;;;;;;;;;;;;;25.95;nan;102017.09;2022635;29;19926;-64
2022/08/11 06:42:43;;;;;;;;;;;;;;;25.99;nan;102020.75;2032802;29;20894;-64
2022/08/11 06:43:50;;;;;;;;;;;;;;;26.34;nan;102018.22;2022151;29;19919;-64
2022/08/11 06:45:09;;;;;;;;;;;;;;;26.91;nan;102024.50;2016229;29;20491;-62
2022/08/11 06:46:14;;;;;;;;;;;;;;;27.25;nan;102017.53;2023856;29;19995;-64
2022/08/11 06:47:20;;;;;;;;;;;;;;;27.01;nan;102018.47;2023657;29;20361;-64
2022/08/11 06:48:23;;;;;;;;;;;;;;;26.34;nan;102029.25;2023164;29;20415;-65
2022/08/11 06:51:13;;;;;;;;;;;;;;;25.33;nan;102024.59;2019620;29;20303;-63
2022/08/11 06:52:16;;;;;;;;;;;;;;;25.05;nan;102024.41;2031512;29;19918;-64
2022/08/11 06:53:19;;;;;;;;;;;;;;;25.33;nan;102019.09;2023649;29;19915;-63
2022/08/11 06:54:20;;;;;;;;;;;;;;;26.29;nan;102023.19;2016171;29;19931;-65
2022/08/11 07:01:02;;;;;;;;;;;;;;;28.83;nan;102027.22;2031537;29;19919;-64
2022/08/11 07:02:14;;;;;;;;;;;;;;;29.24;nan;102022.00;2028330;29;19919;-65
2022/08/11 07:03:18;;;;;;;;;;;;;;;29.53;nan;102019.66;2016457;29;19924;-65
2022/08/11 07:04:43;;;;;;;;;;;;;;;29.79;nan;102022.47;2023764;29;19916;-64
2022/08/11 07:05:50;;;;;;;;;;;;;;;29.95;nan;101990.94;2039170;29;19918;-64
2022/08/11 07:15:43;;;;;;;;;;;;;;;31.77;nan;101986.25;2026569;29;20295;-65
2022/08/11 07:16:47;;;;;;;;;;;;;;;31.98;nan;101991.16;2024451;29;19942;-64
2022/08/11 07:29:09;;;;;;;;;;;;;;;25.35;nan;102005.78;2040249;29;20638;-64
2022/08/11 07:30:11;;;;;;;;;;;;;;;24.95;nan;102008.34;2032189;29;19919;-63
2022/08/11 07:31:32;;;;;;;;;;;;;;;24.42;nan;101994.34;2032394;29;19915;-64
2022/08/11 07:32:46;;;;;;;;;;;;;;;23.89;nan;101998.63;2029354;29;19916;-64
2022/08/11 07:33:53;;;;;;;;;;;;;;;23.79;nan;102002.56;2034060;29;19926;-63
2022/08/11 07:35:12;;;;;;;;;;;;;;;23.91;nan;102009.28;2031488;29;19947;-65
2022/08/11 07:36:14;;;;;;;;;;;;;;;23.85;nan;102003.19;2017527;29;20057;-64
2022/08/11 07:37:19;;;;;;;;;;;;;;;23.95;nan;102004.72;2030632;29;19926;-64
2022/08/11 07:38:42;;;;;;;;;;;;;;;24.00;nan;102001.78;2022959;29;19926;-65
2022/08/11 07:39:45;;;;;;;;;;;;;;;24.17;nan;101996.16;2014865;29;19920;-64
2022/08/11 07:40:47;;;;;;;;;;;;;;;24.26;nan;102002.38;2015332;29;19930;-64
2022/08/11 07:41:51;;;;;;;;;;;;;;;24.32;nan;101993.94;2007867;29;19919;-64
2022/08/11 07:42:54;;;;;;;;;;;;;;;24.34;nan;102000.72;2007625;29;20308;-65
2022/08/11 07:44:07;;;;;;;;;;;;;;;24.18;nan;102003.28;2007279;29;19928;-65
2022/08/11 07:53:51;;;;;;;;;;;;;;;23.82;nan;101998.34;1999059;29;19927;-65
2022/08/11 07:55:17;;;;;;;;;;;;;;;23.86;nan;102006.72;2000075;29;20301;-66
2022/08/11 07:56:21;;;;;;;;;;;;;;;23.90;nan;101997.50;2002497;29;19924;-65
2022/08/11 08:18:12;;;;;;;;;;;;;;;24.05;nan;101993.34;2010552;29;19923;-65
2022/08/11 08:19:19;;;;;;;;;;;;;;;24.23;nan;101997.56;2009768;29;19998;-65
2022/08/11 08:20:23;;;;;;;;;;;;;;;24.35;nan;101996.81;2008301;29;19920;-64
2022/08/11 08:21:24;;;;;;;;;;;;;;;24.26;nan;102002.38;2015629;29;20316;-65
2022/08/11 08:22:26;;;;;;;;;;;;;;;24.21;nan;101997.09;2007392;29;19919;-64
2022/08/11 08:23:33;;;;;;;;;;;;;;;24.26;nan;101998.81;2007623;29;19920;-65
2022/08/11 08:24:40;;;;;;;;;;;;;;;24.28;nan;101997.34;2015368;29;19915;-66
2022/08/11 08:25:43;;;;;;;;;;;;;;;24.40;nan;101993.84;2008447;29;19920;-65
2022/08/11 08:26:59;;;;;;;;;;;;;;;24.45;nan;101999.16;2014447;29;19927;-65
2022/08/11 08:28:02;;;;;;;;;;;;;;;24.68;nan;101994.06;2023248;29;19919;-65
2022/08/11 08:30:47;;;;;;;;;;;;;;;25.30;nan;101996.94;2007186;29;20304;-64
2022/08/11 08:31:48;;;;;;;;;;;;;;;25.61;nan;101997.16;2007128;29;20412;-65
2022/08/11 08:32:52;;;;;;;;;;;;;;;26.04;nan;101992.97;2012986;29;20336;-64
2022/08/11 08:33:58;;;;;;;;;;;;;;;26.67;nan;101992.38;2021137;29;19919;-65
2022/08/11 08:35:18;;;;;;;;;;;;;;;27.63;nan;101998.66;2015015;29;20486;-65
2022/08/11 08:36:22;;;;;;;;;;;;;;;28.31;nan;102003.69;2015115;29;19919;-65